ESMT/HAD METAR and TAF weather

Enter ICAO airport designator
Station Type Date Time Source
ESMT METAR 2023/03/21 17:50 UTC NOAA

ESMT 211750Z 16008KT 2000 -RA FEW003 BKN004 OVC006 07/07 Q1008


Station Type Date Time Source
ESMT Decoded METAR 2023/03/21 17:50 UTC NOAA

Halmstad Swedish Air Force Base , Sweden (ESMT) 56-41N 012-50E
Mar 21, 2023 - 01:50 PM EDT / 2023.03.21 1750 UTC
Wind: from the SSE (160 degrees) at 9 MPH (8 KT):0
Visibility: 1 mile(s):0
Sky conditions: overcast
Weather: light rain
Temperature: 44 F (7 C)
Dew Point: 44 F (7 C)
Relative Humidity: 100%
Pressure (altimeter): 29.77 in. Hg (1008 hPa)
ob: ESMT 211750Z 16008KT 2000 -RA FEW003 BKN004 OVC006 07/07 Q1008
cycle: 18

Station Type Date Time Source
ESMT TAF 2020/11/01 07:40 UTC NOAA

TAF
AMD ESMT 010733Z 0107/0121 16010KT 9999 BKN012
TEMPO 0107/0109 2800 RADZ BR BKN003
BECMG 0109/0112 SCT012

Example: see airport list